sensor_id;sensor_type;location;lat;lon;timestamp;pressure;altitude;pressure_sealevel;temperature;humidity
46876;BME280;32866;50.160;14.768;2023-04-22T00:00:31;99243.53;;;5.35;100.00
46876;BME280;32866;50.160;14.768;2023-04-22T00:02:57;99249.38;;;5.33;100.00
46876;BME280;32866;50.160;14.768;2023-04-22T00:05:23;99194.66;;;4.97;100.00
46876;BME280;32866;50.160;14.768;2023-04-22T00:07:48;99241.31;;;5.23;100.00
46876;BME280;32866;50.160;14.768;2023-04-22T00:10:14;99235.88;;;5.23;100.00
46876;BME280;32866;50.160;14.768;2023-04-22T00:12:39;99206.66;;;4.99;100.00
46876;BME280;32866;50.160;14.768;2023-04-22T00:15:05;99199.75;;;4.91;100.00
46876;BME280;32866;50.160;14.768;2023-04-22T00:17:31;99231.84;;;5.38;100.00
46876;BME280;32866;50.160;14.768;2023-04-22T00:19:57;99222.84;;;5.10;100.00
46876;BME280;32866;50.160;14.768;2023-04-22T00:22:23;99243.63;;;5.24;100.00
46876;BME280;32866;50.160;14.768;2023-04-22T00:24:48;99198.78;;;5.09;100.00
46876;BME280;32866;50.160;14.768;2023-04-22T00:27:13;99186.72;;;5.13;100.00
46876;BME280;32866;50.160;14.768;2023-04-22T00:29:39;99187.06;;;5.15;100.00
46876;BME280;32866;50.160;14.768;2023-04-22T00:32:04;99187.06;;;5.15;100.00
46876;BME280;32866;50.160;14.768;2023-04-22T00:34:30;99225.66;;;5.34;100.00
46876;BME280;32866;50.160;14.768;2023-04-22T00:36:55;99224.78;;;5.44;100.00
46876;BME280;32866;50.160;14.768;2023-04-22T00:39:21;99225.41;;;5.55;100.00
46876;BME280;32866;50.160;14.768;2023-04-22T00:41:46;99221.50;;;5.60;100.00
46876;BME280;32866;50.160;14.768;2023-04-22T00:44:12;99208.66;;;5.61;100.00
46876;BME280;32866;50.160;14.768;2023-04-22T00:46:38;99220.88;;;5.76;100.00
46876;BME280;32866;50.160;14.768;2023-04-22T00:49:04;99218.50;;;5.78;100.00
46876;BME280;32866;50.160;14.768;2023-04-22T00:51:30;99214.97;;;5.81;100.00
46876;BME280;32866;50.160;14.768;2023-04-22T00:53:56;99206.03;;;5.53;100.00
46876;BME280;32866;50.160;14.768;2023-04-22T00:56:24;99220.63;;;5.67;100.00
46876;BME280;32866;50.160;14.768;2023-04-22T00:58:51;99214.03;;;5.64;100.00
46876;BME280;32866;50.160;14.768;2023-04-22T01:01:17;99184.28;;;5.53;100.00
46876;BME280;32866;50.160;14.768;2023-04-22T01:03:43;99222.16;;;5.68;100.00
46876;BME280;32866;50.160;14.768;2023-04-22T01:06:09;99203.94;;;5.34;100.00
46876;BME280;32866;50.160;14.768;2023-04-22T01:08:34;99225.28;;;5.35;100.00
46876;BME280;32866;50.160;14.768;2023-04-22T01:11:01;99216.25;;;5.42;100.00
46876;BME280;32866;50.160;14.768;2023-04-22T01:13:26;99183.94;;;5.17;100.00
46876;BME280;32866;50.160;14.768;2023-04-22T01:15:52;99214.69;;;5.45;100.00
46876;BME280;32866;50.160;14.768;2023-04-22T01:18:18;99218.47;;;5.51;100.00
46876;BME280;32866;50.160;14.768;2023-04-22T01:20:44;99168.47;;;5.14;100.00
46876;BME280;32866;50.160;14.768;2023-04-22T01:23:19;99212.38;;;5.43;100.00
46876;BME280;32866;50.160;14.768;2023-04-22T01:25:45;99213.59;;;5.38;100.00
46876;BME280;32866;50.160;14.768;2023-04-22T01:28:11;99203.00;;;5.13;100.00
46876;BME280;32866;50.160;14.768;2023-04-22T01:30:37;99208.97;;;5.35;100.00
46876;BME280;32866;50.160;14.768;2023-04-22T01:33:03;99215.53;;;5.38;100.00
46876;BME280;32866;50.160;14.768;2023-04-22T01:35:29;99212.50;;;5.32;100.00
46876;BME280;32866;50.160;14.768;2023-04-22T01:38:04;99168.22;;;5.01;100.00
46876;BME280;32866;50.160;14.768;2023-04-22T01:40:31;99210.53;;;5.33;100.00
46876;BME280;32866;50.160;14.768;2023-04-22T01:42:59;99210.19;;;5.31;100.00
46876;BME280;32866;50.160;14.768;2023-04-22T01:45:28;99213.38;;;5.22;100.00
46876;BME280;32866;50.160;14.768;2023-04-22T01:47:54;99206.88;;;5.12;100.00
46876;BME280;32866;50.160;14.768;2023-04-22T01:50:20;99203.63;;;4.90;100.00
46876;BME280;32866;50.160;14.768;2023-04-22T01:52:46;99163.44;;;4.36;100.00
46876;BME280;32866;50.160;14.768;2023-04-22T01:55:11;99161.25;;;4.17;100.00
46876;BME280;32866;50.160;14.768;2023-04-22T01:57:37;99162.41;;;4.19;100.00
46876;BME280;32866;50.160;14.768;2023-04-22T02:00:03;99208.22;;;4.55;100.00
46876;BME280;32866;50.160;14.768;2023-04-22T02:02:29;99194.75;;;4.44;100.00
46876;BME280;32866;50.160;14.768;2023-04-22T02:04:55;99201.03;;;4.34;100.00
46876;BME280;32866;50.160;14.768;2023-04-22T02:07:20;99150.84;;;4.12;100.00
46876;BME280;32866;50.160;14.768;2023-04-22T02:09:46;99180.19;;;4.24;100.00
46876;BME280;32866;50.160;14.768;2023-04-22T02:12:11;99146.94;;;4.16;100.00
46876;BME280;32866;50.160;14.768;2023-04-22T02:14:36;99168.56;;;4.23;100.00
46876;BME280;32866;50.160;14.768;2023-04-22T02:17:02;99197.13;;;4.39;100.00
46876;BME280;32866;50.160;14.768;2023-04-22T02:19:27;99174.16;;;3.98;100.00
46876;BME280;32866;50.160;14.768;2023-04-22T02:21:53;99198.84;;;4.15;100.00
46876;BME280;32866;50.160;14.768;2023-04-22T02:24:19;99149.91;;;3.77;100.00
46876;BME280;32866;50.160;14.768;2023-04-22T02:26:44;99158.09;;;3.69;100.00
46876;BME280;32866;50.160;14.768;2023-04-22T02:29:11;99178.94;;;3.80;100.00
46876;BME280;32866;50.160;14.768;2023-04-22T02:31:37;99175.88;;;3.78;100.00
46876;BME280;32866;50.160;14.768;2023-04-22T02:34:02;99202.13;;;3.88;100.00
46876;BME280;32866;50.160;14.768;2023-04-22T02:36:27;99172.06;;;3.64;100.00
46876;BME280;32866;50.160;14.768;2023-04-22T02:38:53;99205.19;;;3.97;100.00
46876;BME280;32866;50.160;14.768;2023-04-22T02:41:18;99162.06;;;3.54;100.00
46876;BME280;32866;50.160;14.768;2023-04-22T02:43:44;99164.34;;;3.59;100.00
46876;BME280;32866;50.160;14.768;2023-04-22T02:46:12;99161.53;;;3.74;100.00
46876;BME280;32866;50.160;14.768;2023-04-22T02:48:38;99153.38;;;3.81;100.00
46876;BME280;32866;50.160;14.768;2023-04-22T02:51:04;99190.28;;;4.20;100.00
46876;BME280;32866;50.160;14.768;2023-04-22T02:53:30;99180.19;;;4.24;100.00
46876;BME280;32866;50.160;14.768;2023-04-22T02:55:55;99191.03;;;4.24;100.00
46876;BME280;32866;50.160;14.768;2023-04-22T02:58:22;99181.72;;;4.25;100.00
46876;BME280;32866;50.160;14.768;2023-04-22T03:00:48;99173.34;;;4.05;100.00
46876;BME280;32866;50.160;14.768;2023-04-22T03:03:13;99137.00;;;3.95;100.00
46876;BME280;32866;50.160;14.768;2023-04-22T03:05:39;99144.50;;;3.77;100.00
46876;BME280;32866;50.160;14.768;2023-04-22T03:08:04;99153.88;;;3.61;100.00
46876;BME280;32866;50.160;14.768;2023-04-22T03:10:30;99162.13;;;3.40;100.00
46876;BME280;32866;50.160;14.768;2023-04-22T03:12:56;99153.69;;;3.23;100.00
46876;BME280;32866;50.160;14.768;2023-04-22T03:15:21;99187.84;;;3.77;100.00
46876;BME280;32866;50.160;14.768;2023-04-22T03:17:47;99185.03;;;3.95;100.00
46876;BME280;32866;50.160;14.768;2023-04-22T03:20:12;99191.63;;;3.97;100.00
46876;BME280;32866;50.160;14.768;2023-04-22T03:22:38;99182.84;;;3.71;100.00
46876;BME280;32866;50.160;14.768;2023-04-22T03:25:03;99138.94;;;3.39;100.00
46876;BME280;32866;50.160;14.768;2023-04-22T03:27:30;99139.75;;;3.25;100.00
46876;BME280;32866;50.160;14.768;2023-04-22T03:29:55;99151.75;;;3.24;100.00
46876;BME280;32866;50.160;14.768;2023-04-22T03:32:21;99133.69;;;2.95;100.00
46876;BME280;32866;50.160;14.768;2023-04-22T03:34:46;99190.03;;;3.29;100.00
46876;BME280;32866;50.160;14.768;2023-04-22T03:37:12;99152.16;;;3.22;100.00
46876;BME280;32866;50.160;14.768;2023-04-22T03:39:37;99139.72;;;3.36;100.00
46876;BME280;32866;50.160;14.768;2023-04-22T03:42:02;99177.91;;;3.59;100.00
46876;BME280;32866;50.160;14.768;2023-04-22T03:44:28;99177.53;;;3.57;100.00
46876;BME280;32866;50.160;14.768;2023-04-22T03:46:53;99169.81;;;3.48;100.00
46876;BME280;32866;50.160;14.768;2023-04-22T03:49:18;99147.56;;;3.12;100.00
46876;BME280;32866;50.160;14.768;2023-04-22T03:51:44;99178.72;;;3.49;100.00
46876;BME280;32866;50.160;14.768;2023-04-22T03:54:09;99162.19;;;3.25;100.00
46876;BME280;32866;50.160;14.768;2023-04-22T03:56:35;99148.63;;;3.29;100.00
46876;BME280;32866;50.160;14.768;2023-04-22T03:59:00;99160.69;;;3.13;100.00
46876;BME280;32866;50.160;14.768;2023-04-22T04:01:26;99186.19;;;3.27;100.00
46876;BME280;32866;50.160;14.768;2023-04-22T04:03:51;99171.97;;;2.97;100.00
46876;BME280;32866;50.160;14.768;2023-04-22T04:06:17;99173.91;;;2.93;100.00
46876;BME280;32866;50.160;14.768;2023-04-22T04:08:42;99143.78;;;2.70;100.00
46876;BME280;32866;50.160;14.768;2023-04-22T04:11:08;99180.84;;;2.98;100.00
46876;BME280;32866;50.160;14.768;2023-04-22T04:13:34;99149.97;;;2.88;100.00
46876;BME280;32866;50.160;14.768;2023-04-22T04:15:59;99174.56;;;3.26;100.00
46876;BME280;32866;50.160;14.768;2023-04-22T04:18:26;99160.66;;;3.21;100.00
46876;BME280;32866;50.160;14.768;2023-04-22T04:20:53;99170.69;;;3.27;100.00
46876;BME280;32866;50.160;14.768;2023-04-22T04:23:19;99142.91;;;3.09;100.00
46876;BME280;32866;50.160;14.768;2023-04-22T04:25:44;99185.81;;;3.21;100.00
46876;BME280;32866;50.160;14.768;2023-04-22T04:28:10;99151.81;;;3.06;100.00
46876;BME280;32866;50.160;14.768;2023-04-22T04:30:36;99190.00;;;3.37;100.00
46876;BME280;32866;50.160;14.768;2023-04-22T04:33:02;99188.84;;;3.38;100.00
46876;BME280;32866;50.160;14.768;2023-04-22T04:35:32;99139.03;;;3.06;100.00
46876;BME280;32866;50.160;14.768;2023-04-22T04:37:59;99195.31;;;3.58;100.00
46876;BME280;32866;50.160;14.768;2023-04-22T04:40:25;99176.44;;;3.44;100.00
46876;BME280;32866;50.160;14.768;2023-04-22T04:42:50;99179.81;;;3.66;100.00
46876;BME280;32866;50.160;14.768;2023-04-22T04:45:17;99185.06;;;3.91;100.00
46876;BME280;32866;50.160;14.768;2023-04-22T04:47:43;99182.56;;;4.18;100.00
46876;BME280;32866;50.160;14.768;2023-04-22T04:50:09;99150.47;;;4.09;100.00
46876;BME280;32866;50.160;14.768;2023-04-22T04:52:35;99157.75;;;4.20;100.00
46876;BME280;32866;50.160;14.768;2023-04-22T04:55:00;99186.03;;;4.68;100.00
46876;BME280;32866;50.160;14.768;2023-04-22T04:57:25;99161.28;;;4.58;100.00
46876;BME280;32866;50.160;14.768;2023-04-22T04:59:51;99149.66;;;4.58;100.00
46876;BME280;32866;50.160;14.768;2023-04-22T05:02:16;99186.22;;;4.88;100.00
46876;BME280;32866;50.160;14.768;2023-04-22T05:04:42;99164.06;;;4.89;100.00
46876;BME280;32866;50.160;14.768;2023-04-22T05:07:07;99184.00;;;5.13;100.00
46876;BME280;32866;50.160;14.768;2023-04-22T05:09:32;99195.97;;;5.50;100.00
46876;BME280;32866;50.160;14.768;2023-04-22T05:12:02;99160.34;;;5.41;100.00
46876;BME280;32866;50.160;14.768;2023-04-22T05:14:27;99147.31;;;5.60;100.00
46876;BME280;32866;50.160;14.768;2023-04-22T05:16:53;99157.81;;;5.85;100.00
46876;BME280;32866;50.160;14.768;2023-04-22T05:19:18;99160.91;;;6.38;100.00
46876;BME280;32866;50.160;14.768;2023-04-22T05:21:44;99175.81;;;6.97;100.00
46876;BME280;32866;50.160;14.768;2023-04-22T05:24:09;99176.31;;;7.12;100.00
46876;BME280;32866;50.160;14.768;2023-04-22T05:26:34;99201.16;;;7.74;100.00
46876;BME280;32866;50.160;14.768;2023-04-22T05:29:00;99213.91;;;8.13;100.00
46876;BME280;32866;50.160;14.768;2023-04-22T05:31:25;99210.28;;;8.36;100.00
46876;BME280;32866;50.160;14.768;2023-04-22T05:33:51;99213.44;;;8.51;100.00
46876;BME280;32866;50.160;14.768;2023-04-22T05:36:16;99178.53;;;8.26;100.00
46876;BME280;32866;50.160;14.768;2023-04-22T05:38:41;99189.00;;;8.77;100.00
46876;BME280;32866;50.160;14.768;2023-04-22T05:41:07;99187.38;;;9.09;100.00
46876;BME280;32866;50.160;14.768;2023-04-22T05:43:32;99202.13;;;9.41;100.00
46876;BME280;32866;50.160;14.768;2023-04-22T05:45:58;99219.13;;;9.74;100.00
46876;BME280;32866;50.160;14.768;2023-04-22T05:48:23;99190.44;;;9.66;100.00
46876;BME280;32866;50.160;14.768;2023-04-22T05:50:48;99218.19;;;9.94;100.00
46876;BME280;32866;50.160;14.768;2023-04-22T05:53:14;99214.78;;;10.02;100.00
46876;BME280;32866;50.160;14.768;2023-04-22T05:55:39;99214.66;;;10.45;100.00
46876;BME280;32866;50.160;14.768;2023-04-22T05:58:05;99182.22;;;10.56;100.00
46876;BME280;32866;50.160;14.768;2023-04-22T06:00:30;99189.88;;;11.18;100.00
46876;BME280;32866;50.160;14.768;2023-04-22T06:02:56;99192.31;;;11.47;100.00
46876;BME280;32866;50.160;14.768;2023-04-22T06:05:21;99200.94;;;11.90;100.00
46876;BME280;32866;50.160;14.768;2023-04-22T06:07:46;99196.44;;;12.15;100.00
46876;BME280;32866;50.160;14.768;2023-04-22T06:10:12;99177.56;;;12.17;100.00
46876;BME280;32866;50.160;14.768;2023-04-22T06:12:37;99208.16;;;12.65;100.00
46876;BME280;32866;50.160;14.768;2023-04-22T06:15:03;99217.66;;;12.83;100.00
46876;BME280;32866;50.160;14.768;2023-04-22T06:17:29;99221.78;;;12.96;100.00
46876;BME280;32866;50.160;14.768;2023-04-22T06:19:54;99195.19;;;12.56;100.00
46876;BME280;32866;50.160;14.768;2023-04-22T06:22:20;99202.06;;;12.02;100.00
46876;BME280;32866;50.160;14.768;2023-04-22T06:24:45;99211.34;;;12.45;100.00
46876;BME280;32866;50.160;14.768;2023-04-22T06:27:10;99202.75;;;12.24;100.00
46876;BME280;32866;50.160;14.768;2023-04-22T06:29:36;99202.50;;;12.50;100.00
46876;BME280;32866;50.160;14.768;2023-04-22T06:32:01;99187.56;;;12.60;100.00
46876;BME280;32866;50.160;14.768;2023-04-22T06:34:27;99215.66;;;13.20;100.00
46876;BME280;32866;50.160;14.768;2023-04-22T06:36:52;99186.72;;;13.71;100.00
46876;BME280;32866;50.160;14.768;2023-04-22T06:39:34;99224.16;;;14.93;100.00
46876;BME280;32866;50.160;14.768;2023-04-22T06:41:59;99207.56;;;15.02;100.00
46876;BME280;32866;50.160;14.768;2023-04-22T06:44:25;99205.03;;;15.43;100.00
46876;BME280;32866;50.160;14.768;2023-04-22T06:46:51;99207.50;;;15.41;100.00
46876;BME280;32866;50.160;14.768;2023-04-22T06:49:16;99203.09;;;15.19;100.00
46876;BME280;32866;50.160;14.768;2023-04-22T06:51:42;99206.66;;;15.20;100.00
46876;BME280;32866;50.160;14.768;2023-04-22T06:54:07;99206.47;;;15.38;100.00
46876;BME280;32866;50.160;14.768;2023-04-22T06:56:32;99206.28;;;15.42;100.00
46876;BME280;32866;50.160;14.768;2023-04-22T06:58:58;99191.88;;;15.68;100.00
46876;BME280;32866;50.160;14.768;2023-04-22T07:01:23;99215.03;;;15.85;100.00
46876;BME280;32866;50.160;14.768;2023-04-22T07:03:49;99190.25;;;16.06;100.00
46876;BME280;32866;50.160;14.768;2023-04-22T07:06:14;99190.34;;;16.73;98.57
46876;BME280;32866;50.160;14.768;2023-04-22T07:08:39;99208.72;;;17.70;86.31
46876;BME280;32866;50.160;14.768;2023-04-22T07:11:05;99183.72;;;17.96;78.50
46876;BME280;32866;50.160;14.768;2023-04-22T07:13:30;99200.78;;;18.75;75.58
46876;BME280;32866;50.160;14.768;2023-04-22T07:15:59;99181.25;;;19.18;71.55
46876;BME280;32866;50.160;14.768;2023-04-22T07:18:24;99176.50;;;19.53;63.28
46876;BME280;32866;50.160;14.768;2023-04-22T07:20:50;99164.88;;;19.77;58.01
46876;BME280;32866;50.160;14.768;2023-04-22T07:23:15;99201.50;;;20.04;56.52
46876;BME280;32866;50.160;14.768;2023-04-22T07:25:40;99196.94;;;20.87;54.66
46876;BME280;32866;50.160;14.768;2023-04-22T07:28:05;99202.31;;;21.21;51.82
46876;BME280;32866;50.160;14.768;2023-04-22T07:30:31;99197.88;;;21.48;51.82
46876;BME280;32866;50.160;14.768;2023-04-22T07:35:31;99182.13;;;21.81;48.09
46876;BME280;32866;50.160;14.768;2023-04-22T07:37:57;99191.09;;;22.23;48.20
46876;BME280;32866;50.160;14.768;2023-04-22T07:40:22;99165.59;;;21.89;47.16
46876;BME280;32866;50.160;14.768;2023-04-22T07:42:47;99171.78;;;21.76;46.53
46876;BME280;32866;50.160;14.768;2023-04-22T07:45:13;99195.53;;;22.38;46.31
46876;BME280;32866;50.160;14.768;2023-04-22T07:47:38;99185.91;;;22.39;44.70
46876;BME280;32866;50.160;14.768;2023-04-22T07:50:04;99192.25;;;21.84;47.02
46876;BME280;32866;50.160;14.768;2023-04-22T07:52:29;99191.81;;;21.75;47.10
46876;BME280;32866;50.160;14.768;2023-04-22T07:54:55;99187.91;;;23.20;43.02
46876;BME280;32866;50.160;14.768;2023-04-22T07:57:20;99185.31;;;22.65;43.35
46876;BME280;32866;50.160;14.768;2023-04-22T07:59:47;99191.88;;;23.44;43.17
46876;BME280;32866;50.160;14.768;2023-04-22T08:02:13;99179.84;;;23.95;42.36
46876;BME280;32866;50.160;14.768;2023-04-22T08:04:38;99186.88;;;24.55;41.18
46876;BME280;32866;50.160;14.768;2023-04-22T08:07:04;99167.88;;;24.88;40.13
46876;BME280;32866;50.160;14.768;2023-04-22T08:09:29;99167.84;;;25.01;37.86
46876;BME280;32866;50.160;14.768;2023-04-22T08:11:54;99188.25;;;24.08;40.10
46876;BME280;32866;50.160;14.768;2023-04-22T08:14:20;99167.13;;;23.34;41.04
46876;BME280;32866;50.160;14.768;2023-04-22T08:16:46;99196.34;;;23.33;42.76
46876;BME280;32866;50.160;14.768;2023-04-22T08:19:11;99176.88;;;23.09;42.36
46876;BME280;32866;50.160;14.768;2023-04-22T08:21:36;99166.50;;;23.42;45.00
46876;BME280;32866;50.160;14.768;2023-04-22T08:24:02;99179.56;;;23.98;41.09
46876;BME280;32866;50.160;14.768;2023-04-22T08:26:28;99185.16;;;24.12;40.89
46876;BME280;32866;50.160;14.768;2023-04-22T08:28:53;99168.63;;;23.68;39.12
46876;BME280;32866;50.160;14.768;2023-04-22T08:31:18;99187.72;;;23.96;39.41
46876;BME280;32866;50.160;14.768;2023-04-22T08:33:44;99157.91;;;23.40;40.16
46876;BME280;32866;50.160;14.768;2023-04-22T08:36:09;99165.03;;;23.03;42.29
46876;BME280;32866;50.160;14.768;2023-04-22T08:38:35;99195.84;;;23.81;41.35
46876;BME280;32866;50.160;14.768;2023-04-22T08:41:03;99187.22;;;23.65;41.79
46876;BME280;32866;50.160;14.768;2023-04-22T08:43:31;99189.44;;;23.99;40.69
46876;BME280;32866;50.160;14.768;2023-04-22T08:45:56;99159.00;;;25.52;36.72
46876;BME280;32866;50.160;14.768;2023-04-22T08:48:22;99154.16;;;23.50;40.18
46876;BME280;32866;50.160;14.768;2023-04-22T08:50:47;99171.13;;;24.65;37.70
46876;BME280;32866;50.160;14.768;2023-04-22T08:53:14;99146.91;;;25.36;36.61
46876;BME280;32866;50.160;14.768;2023-04-22T08:55:43;99155.84;;;24.53;37.57
46876;BME280;32866;50.160;14.768;2023-04-22T08:58:10;99178.41;;;25.92;35.60
46876;BME280;32866;50.160;14.768;2023-04-22T09:00:38;99176.25;;;25.57;36.59
46876;BME280;32866;50.160;14.768;2023-04-22T09:03:06;99170.94;;;24.23;39.49
46876;BME280;32866;50.160;14.768;2023-04-22T09:05:32;99149.63;;;23.93;39.06
46876;BME280;32866;50.160;14.768;2023-04-22T09:08:01;99169.88;;;25.35;38.09
46876;BME280;32866;50.160;14.768;2023-04-22T09:10:28;99166.19;;;24.44;40.52
46876;BME280;32866;50.160;14.768;2023-04-22T09:12:54;99158.78;;;25.50;38.36
46876;BME280;32866;50.160;14.768;2023-04-22T09:15:21;99168.28;;;25.68;36.65
46876;BME280;32866;50.160;14.768;2023-04-22T09:17:46;99151.41;;;26.83;36.13
46876;BME280;32866;50.160;14.768;2023-04-22T09:20:11;99141.13;;;25.84;37.87
46876;BME280;32866;50.160;14.768;2023-04-22T09:22:46;99162.97;;;27.93;32.29
46876;BME280;32866;50.160;14.768;2023-04-22T09:25:23;99160.28;;;28.19;30.96
46876;BME280;32866;50.160;14.768;2023-04-22T09:27:50;99145.88;;;27.68;33.29
46876;BME280;32866;50.160;14.768;2023-04-22T09:30:17;99132.34;;;28.05;32.11
46876;BME280;32866;50.160;14.768;2023-04-22T09:33:01;99117.94;;;27.55;33.31
46876;BME280;32866;50.160;14.768;2023-04-22T09:35:30;99143.44;;;27.65;33.38
46876;BME280;32866;50.160;14.768;2023-04-22T09:37:58;99129.53;;;27.28;33.04
46876;BME280;32866;50.160;14.768;2023-04-22T09:40:24;99133.31;;;27.46;31.50
46876;BME280;32866;50.160;14.768;2023-04-22T09:42:51;99138.56;;;27.27;33.58
46876;BME280;32866;50.160;14.768;2023-04-22T09:45:26;99139.97;;;28.36;32.64
46876;BME280;32866;50.160;14.768;2023-04-22T09:47:53;99110.06;;;29.14;31.90
46876;BME280;32866;50.160;14.768;2023-04-22T09:50:20;99121.72;;;29.68;28.56
46876;BME280;32866;50.160;14.768;2023-04-22T09:52:55;99116.44;;;29.47;30.34
46876;BME280;32866;50.160;14.768;2023-04-22T09:55:23;99118.06;;;29.75;29.21
46876;BME280;32866;50.160;14.768;2023-04-22T09:57:53;99125.88;;;29.85;30.70
46876;BME280;32866;50.160;14.768;2023-04-22T10:00:20;99094.53;;;29.05;31.81
46876;BME280;32866;50.160;14.768;2023-04-22T10:02:46;99109.78;;;28.69;32.91
46876;BME280;32866;50.160;14.768;2023-04-22T10:05:11;99097.75;;;29.77;30.73
46876;BME280;32866;50.160;14.768;2023-04-22T10:07:38;99115.66;;;28.96;30.58
46876;BME280;32866;50.160;14.768;2023-04-22T10:10:07;99097.25;;;29.88;29.05
46876;BME280;32866;50.160;14.768;2023-04-22T10:12:34;99107.66;;;29.60;28.82
46876;BME280;32866;50.160;14.768;2023-04-22T10:15:00;99095.44;;;28.82;28.49
46876;BME280;32866;50.160;14.768;2023-04-22T10:17:28;99107.31;;;28.25;30.81
46876;BME280;32866;50.160;14.768;2023-04-22T10:19:55;99102.88;;;30.23;29.01
46876;BME280;32866;50.160;14.768;2023-04-22T10:22:21;99066.56;;;29.50;29.30
46876;BME280;32866;50.160;14.768;2023-04-22T10:24:47;99064.41;;;28.49;29.46
46876;BME280;32866;50.160;14.768;2023-04-22T10:27:20;99077.47;;;29.28;29.13
46876;BME280;32866;50.160;14.768;2023-04-22T10:29:46;99069.34;;;29.75;30.37
46876;BME280;32866;50.160;14.768;2023-04-22T10:34:45;99083.28;;;31.34;28.72
46876;BME280;32866;50.160;14.768;2023-04-22T10:37:11;99071.91;;;30.15;27.29
46876;BME280;32866;50.160;14.768;2023-04-22T10:39:41;99083.25;;;29.73;28.43
46876;BME280;32866;50.160;14.768;2023-04-22T10:42:09;99079.72;;;29.30;29.01
46876;BME280;32866;50.160;14.768;2023-04-22T10:44:59;99063.81;;;29.59;29.10
46876;BME280;32866;50.160;14.768;2023-04-22T10:47:34;99065.88;;;30.02;27.21
46876;BME280;32866;50.160;14.768;2023-04-22T10:52:38;99043.50;;;29.61;28.82
46876;BME280;32866;50.160;14.768;2023-04-22T10:55:04;99063.66;;;30.27;27.53
46876;BME280;32866;50.160;14.768;2023-04-22T10:57:33;99059.19;;;30.42;26.46
46876;BME280;32866;50.160;14.768;2023-04-22T11:03:05;99052.72;;;29.62;28.74
46876;BME280;32866;50.160;14.768;2023-04-22T11:05:32;99050.59;;;28.69;28.56
46876;BME280;32866;50.160;14.768;2023-04-22T11:08:11;99058.13;;;28.74;28.00
46876;BME280;32866;50.160;14.768;2023-04-22T11:10:38;99048.34;;;29.26;30.42
46876;BME280;32866;50.160;14.768;2023-04-22T11:13:12;99046.00;;;28.48;29.72
46876;BME280;32866;50.160;14.768;2023-04-22T11:15:39;99041.66;;;28.22;32.00
46876;BME280;32866;50.160;14.768;2023-04-22T11:18:10;99037.38;;;28.46;31.12
46876;BME280;32866;50.160;14.768;2023-04-22T11:20:36;99000.63;;;28.95;29.41
46876;BME280;32866;50.160;14.768;2023-04-22T11:23:02;99024.09;;;28.97;28.48
46876;BME280;32866;50.160;14.768;2023-04-22T11:25:27;99006.56;;;29.49;28.14
46876;BME280;32866;50.160;14.768;2023-04-22T11:27:53;99024.06;;;28.80;28.03
46876;BME280;32866;50.160;14.768;2023-04-22T11:30:23;99028.66;;;29.95;27.10
46876;BME280;32866;50.160;14.768;2023-04-22T11:32:51;99024.63;;;29.46;29.10
46876;BME280;32866;50.160;14.768;2023-04-22T11:35:18;99025.56;;;29.66;29.21
46876;BME280;32866;50.160;14.768;2023-04-22T11:37:45;99027.84;;;29.00;29.90
46876;BME280;32866;50.160;14.768;2023-04-22T11:40:19;99020.19;;;28.27;28.83
46876;BME280;32866;50.160;14.768;2023-04-22T11:42:44;99009.38;;;28.81;29.90
46876;BME280;32866;50.160;14.768;2023-04-22T11:45:10;98986.16;;;28.07;29.76
46876;BME280;32866;50.160;14.768;2023-04-22T11:47:38;99006.94;;;28.53;27.84
46876;BME280;32866;50.160;14.768;2023-04-22T11:50:06;99009.66;;;28.93;28.75
46876;BME280;32866;50.160;14.768;2023-04-22T11:55:16;99008.25;;;29.70;28.05
46876;BME280;32866;50.160;14.768;2023-04-22T11:57:44;99011.78;;;29.10;26.64
46876;BME280;32866;50.160;14.768;2023-04-22T12:00:12;99011.03;;;29.10;26.83
46876;BME280;32866;50.160;14.768;2023-04-22T12:02:39;98999.03;;;30.59;26.95
46876;BME280;32866;50.160;14.768;2023-04-22T12:05:08;99017.03;;;31.96;24.32
46876;BME280;32866;50.160;14.768;2023-04-22T12:07:35;98986.81;;;31.69;25.17
46876;BME280;32866;50.160;14.768;2023-04-22T12:10:01;99000.53;;;30.97;26.58
46876;BME280;32866;50.160;14.768;2023-04-22T12:12:27;99008.69;;;30.28;25.88
46876;BME280;32866;50.160;14.768;2023-04-22T12:14:53;99001.94;;;31.25;25.51
46876;BME280;32866;50.160;14.768;2023-04-22T12:17:23;98998.97;;;31.23;23.94
46876;BME280;32866;50.160;14.768;2023-04-22T12:19:55;98978.09;;;30.99;26.00
46876;BME280;32866;50.160;14.768;2023-04-22T12:22:28;98988.19;;;32.48;22.74
46876;BME280;32866;50.160;14.768;2023-04-22T12:25:00;98986.81;;;32.08;23.63
46876;BME280;32866;50.160;14.768;2023-04-22T12:27:26;98981.59;;;32.55;24.08
46876;BME280;32866;50.160;14.768;2023-04-22T12:29:53;98960.25;;;30.69;25.31
46876;BME280;32866;50.160;14.768;2023-04-22T12:32:20;98983.94;;;30.74;26.38
46876;BME280;32866;50.160;14.768;2023-04-22T12:34:46;98980.31;;;30.63;26.01
46876;BME280;32866;50.160;14.768;2023-04-22T12:37:12;98977.66;;;30.38;26.24
46876;BME280;32866;50.160;14.768;2023-04-22T12:39:37;98967.66;;;31.01;24.85
46876;BME280;32866;50.160;14.768;2023-04-22T12:42:03;98964.81;;;31.01;25.42
46876;BME280;32866;50.160;14.768;2023-04-22T12:44:30;98960.59;;;31.78;24.14
46876;BME280;32866;50.160;14.768;2023-04-22T12:46:55;98955.22;;;31.24;25.38
46876;BME280;32866;50.160;14.768;2023-04-22T12:49:21;98954.81;;;30.91;25.99
46876;BME280;32866;50.160;14.768;2023-04-22T12:51:46;98961.72;;;30.97;23.96
46876;BME280;32866;50.160;14.768;2023-04-22T12:54:12;98933.91;;;31.33;23.78
46876;BME280;32866;50.160;14.768;2023-04-22T12:56:37;98960.50;;;30.63;25.75
46876;BME280;32866;50.160;14.768;2023-04-22T12:59:02;98953.00;;;30.48;29.17